Time;durP1;ratioP1;P1;durP2;ratioP2;P2;SDS_P1;SDS_P2;PMS_P1;PMS_P2;Temp;Humidity;BMP_temperature;BMP_pressure;BME280_temperature;BME280_humidity;BME280_pressure;Samples;Min_cycle;Max_cycle;Signal;HPM_P1;HPM_P2
2024/01/30 00:00:35;;;;;;;65.95;61.80;;;;;;;8.80;70.71;102526.66;5073082;28;20031;-71
2024/01/30 00:03:01;;;;;;;64.88;61.45;;;;;;;8.80;70.54;102514.03;5072594;28;20094;-71
2024/01/30 00:05:26;;;;;;;63.05;59.13;;;;;;;8.80;70.51;102518.59;5071345;28;20456;-71
2024/01/30 00:07:51;;;;;;;64.03;60.70;;;;;;;8.80;70.39;102513.19;5070455;28;20443;-71
2024/01/30 00:10:17;;;;;;;58.00;54.90;;;;;;;8.79;70.58;102503.41;5071571;28;20033;-70
2024/01/30 00:12:42;;;;;;;59.40;56.10;;;;;;;8.79;70.71;102506.13;5072784;28;20430;-70
2024/01/30 00:15:09;;;;;;;61.17;57.97;;;;;;;8.78;70.40;102505.28;5070373;28;20032;-70
2024/01/30 00:17:36;;;;;;;66.90;63.50;;;;;;;8.77;70.33;102503.63;5054912;28;20048;-71
2024/01/30 00:20:05;;;;;;;65.65;61.95;;;;;;;8.78;70.27;102507.16;5072721;28;20115;-71
2024/01/30 00:22:30;;;;;;;62.25;59.08;;;;;;;8.78;70.31;102501.75;5072430;28;20029;-71
2024/01/30 00:24:56;;;;;;;65.03;61.50;;;;;;;8.77;70.33;102502.75;5071476;28;20036;-71
2024/01/30 00:27:21;;;;;;;60.55;57.45;;;;;;;8.78;70.42;102491.00;5057145;28;20076;-71
2024/01/30 00:29:47;;;;;;;63.00;59.50;;;;;;;8.77;70.26;102500.06;5054504;28;20040;-71
2024/01/30 00:32:12;;;;;;;63.22;59.83;;;;;;;8.77;70.38;102489.28;5062677;28;20075;-72
2024/01/30 00:34:37;;;;;;;64.53;61.05;;;;;;;8.77;70.33;102492.00;5072415;28;20037;-71
2024/01/30 00:37:03;;;;;;;67.28;63.42;;;;;;;8.77;70.32;102483.91;5070033;28;20071;-71
2024/01/30 00:39:28;;;;;;;61.45;58.28;;;;;;;8.76;70.43;102482.25;5087567;28;20043;-71
2024/01/30 00:41:54;;;;;;;68.22;64.65;;;;;;;8.75;70.34;102478.72;5072628;28;20047;-71
2024/01/30 00:44:19;;;;;;;64.95;61.65;;;;;;;8.76;70.19;102484.94;5070524;28;20039;-71
2024/01/30 00:46:45;;;;;;;62.85;59.45;;;;;;;8.76;70.16;102483.06;5068548;28;20036;-71
2024/01/30 00:49:11;;;;;;;66.57;62.88;;;;;;;8.76;70.27;102487.63;5071750;28;20029;-71
2024/01/30 00:51:36;;;;;;;60.45;57.33;;;;;;;8.75;70.23;102489.50;5068891;28;20039;-72
2024/01/30 00:54:02;;;;;;;63.55;60.13;;;;;;;8.75;69.95;102489.50;5058514;28;20036;-71
2024/01/30 00:56:28;;;;;;;64.75;61.05;;;;;;;8.75;70.23;102483.28;5072135;28;20036;-71
2024/01/30 00:58:54;;;;;;;63.33;59.88;;;;;;;8.76;70.05;102484.94;5068332;28;20037;-71
2024/01/30 01:01:19;;;;;;;66.50;62.90;;;;;;;8.75;70.18;102486.81;5063563;28;20043;-70
2024/01/30 01:03:45;;;;;;;61.38;57.97;;;;;;;8.74;70.25;102474.34;5071114;28;20460;-70
2024/01/30 01:06:10;;;;;;;66.18;62.65;;;;;;;8.74;70.13;102473.50;5071006;28;20051;-70
2024/01/30 01:08:36;;;;;;;63.97;60.33;;;;;;;8.74;70.20;102484.28;5068918;28;20115;-71
2024/01/30 01:11:03;;;;;;;66.40;62.72;;;;;;;8.74;70.03;102487.81;5065166;28;20461;-71
2024/01/30 01:13:28;;;;;;;65.15;61.85;;;;;;;8.75;70.16;102483.28;5065742;28;20039;-71
2024/01/30 01:15:54;;;;;;;67.47;63.95;;;;;;;8.74;70.31;102479.72;5071128;28;20028;-71
2024/01/30 01:18:20;;;;;;;64.43;61.40;;;;;;;8.74;70.07;102481.59;5068260;28;20045;-71
2024/01/30 01:20:45;;;;;;;64.65;61.45;;;;;;;8.73;70.09;102478.06;5072435;28;20050;-71
2024/01/30 01:23:11;;;;;;;65.78;62.05;;;;;;;8.74;70.16;102476.22;5071332;28;20059;-71
2024/01/30 01:25:36;;;;;;;62.58;59.38;;;;;;;8.74;70.17;102474.34;5071918;28;20028;-71
2024/01/30 01:28:02;;;;;;;63.70;60.00;;;;;;;8.76;70.20;102472.31;5065009;28;20084;-71
2024/01/30 01:30:29;;;;;;;61.33;58.22;;;;;;;8.75;70.06;102470.66;5068327;28;20103;-71
2024/01/30 01:32:59;;;;;;;61.55;58.45;;;;;;;8.76;70.10;102466.91;5073789;28;20033;-71
2024/01/30 01:35:26;;;;;;;63.95;60.53;;;;;;;8.76;70.22;102466.09;5075547;28;20059;-71
2024/01/30 01:37:54;;;;;;;60.95;57.70;;;;;;;8.77;70.06;102465.03;5074045;28;20123;-71
2024/01/30 01:40:23;;;;;;;66.93;63.13;;;;;;;8.78;70.10;102461.34;5063419;28;20230;-70
2024/01/30 01:42:52;;;;;;;;;;;;;;;8.76;70.04;102460.69;5069812;28;20021;-71
2024/01/30 01:45:18;;;;;;;60.80;57.58;;;;;;;8.76;69.94;102455.31;5059087;28;20285;-71
2024/01/30 01:47:45;;;;;;;61.75;58.42;;;;;;;8.75;70.16;102450.94;5055781;28;20048;-72
2024/01/30 01:50:13;;;;;;;63.15;60.00;;;;;;;8.75;70.05;102449.09;5067285;28;20166;-70
2024/01/30 01:52:41;;;;;;;58.97;56.15;;;;;;;8.76;70.20;102449.91;5075410;28;20040;-71
2024/01/30 01:55:07;;;;;;;64.75;60.88;;;;;;;8.76;69.92;102452.59;5061089;28;20125;-71
2024/01/30 01:57:33;;;;;;;62.83;59.75;;;;;;;8.76;70.00;102453.44;5062921;28;20483;-71
2024/01/30 02:00:01;;;;;;;62.50;58.80;;;;;;;8.76;69.94;102456.13;5074945;28;20028;-71
2024/01/30 02:02:29;;;;;;;63.63;60.22;;;;;;;8.76;70.03;102458.81;5075430;28;20040;-72
2024/01/30 02:04:55;;;;;;;68.03;64.22;;;;;;;8.77;70.16;102455.13;5067566;28;20033;-72
2024/01/30 02:07:20;;;;;;;66.63;62.30;;;;;;;8.77;70.01;102455.13;5061390;28;20483;-70
2024/01/30 02:09:46;;;;;;;60.80;57.53;;;;;;;8.78;70.08;102454.09;5075080;28;20435;-71
2024/01/30 02:12:11;;;;;;;62.97;59.58;;;;;;;8.77;70.05;102449.75;5074824;28;20031;-71
2024/01/30 02:14:46;;;;;;;64.22;60.83;;;;;;;8.79;70.13;102463.00;5072658;28;20035;-71
2024/01/30 02:17:12;;;;;;;63.20;59.85;;;;;;;8.78;70.04;102451.41;5071695;28;20090;-71
2024/01/30 02:19:38;;;;;;;63.28;59.83;;;;;;;8.78;69.92;102451.41;5075210;28;20453;-70
2024/01/30 02:22:04;;;;;;;65.93;62.63;;;;;;;8.78;69.94;102453.25;5071975;28;20132;-73
2024/01/30 02:24:29;;;;;;;62.95;59.88;;;;;;;8.79;70.01;102454.91;5075045;28;20036;-71
2024/01/30 02:26:55;;;;;;;67.00;63.70;;;;;;;8.78;69.96;102455.97;5062967;28;20029;-71
2024/01/30 02:29:20;;;;;;;64.07;60.38;;;;;;;8.77;69.96;102448.88;5072178;28;20032;-70
2024/01/30 02:31:46;;;;;;;60.88;57.75;;;;;;;8.78;69.99;102445.19;5072268;28;20036;-71
2024/01/30 02:34:11;;;;;;;67.95;64.45;;;;;;;8.78;70.02;102447.88;5069152;28;20048;-71
2024/01/30 02:36:37;;;;;;;65.53;61.50;;;;;;;8.78;70.13;102437.09;5056853;28;20033;-70
2024/01/30 02:39:03;;;;;;;61.92;58.53;;;;;;;8.78;70.00;102446.00;5062831;28;20032;-71
2024/01/30 02:41:28;;;;;;;65.13;61.65;;;;;;;8.78;69.99;102432.53;5062680;28;20028;-70
2024/01/30 02:43:53;;;;;;;63.53;60.15;;;;;;;8.78;69.97;102429.00;5073004;28;20380;-70
2024/01/30 02:46:19;;;;;;;66.78;63.17;;;;;;;8.78;69.90;102432.53;5073953;28;20075;-70
2024/01/30 02:48:44;;;;;;;66.43;63.03;;;;;;;8.79;70.18;102436.06;5072434;28;20354;-70
2024/01/30 02:51:10;;;;;;;64.13;60.33;;;;;;;8.79;69.85;102434.19;5072131;28;20033;-71
2024/01/30 02:53:35;;;;;;;64.53;60.55;;;;;;;8.78;70.02;102427.16;5074192;28;20032;-71
2024/01/30 02:56:02;;;;;;;65.38;61.40;;;;;;;8.78;70.12;102418.25;5074501;28;20044;-71
2024/01/30 02:58:28;;;;;;;64.03;58.67;;;;;;;8.78;70.04;102407.47;5071355;28;20124;-71
2024/01/30 03:00:53;;;;;;;60.13;57.00;;;;;;;8.78;70.00;102413.69;5074398;28;20087;-71
2024/01/30 03:03:18;;;;;;;61.58;58.22;;;;;;;8.78;69.95;102416.38;5073835;28;20029;-71
2024/01/30 03:05:44;;;;;;;62.00;58.85;;;;;;;8.79;70.37;102419.91;5066267;28;20037;-72
2024/01/30 03:08:09;;;;;;;62.53;58.78;;;;;;;8.79;70.17;102425.28;5066447;28;20041;-72
2024/01/30 03:10:34;;;;;;;61.38;58.28;;;;;;;8.79;70.07;102417.19;5068546;28;20033;-70
2024/01/30 03:13:00;;;;;;;64.07;60.75;;;;;;;8.80;70.09;102421.59;5074094;28;20028;-70
2024/01/30 03:15:25;;;;;;;63.20;59.65;;;;;;;8.79;70.02;102422.59;5070459;28;20024;-71
2024/01/30 03:17:51;;;;;;;62.47;59.20;;;;;;;8.79;69.48;102428.81;5073764;28;20384;-71
2024/01/30 03:20:16;;;;;;;63.03;59.80;;;;;;;8.80;70.00;102426.97;5072204;28;20392;-71
2024/01/30 03:22:41;;;;;;;61.88;58.35;;;;;;;8.78;70.00;102420.94;5073358;28;20116;-72
2024/01/30 03:25:07;;;;;;;63.60;60.45;;;;;;;8.78;69.92;102424.47;5072064;28;20068;-71
2024/01/30 03:27:32;;;;;;;62.50;59.28;;;;;;;8.78;70.15;102423.63;5071270;28;20036;-71
2024/01/30 03:29:58;;;;;;;62.47;59.08;;;;;;;8.78;69.88;102426.31;5065406;28;20032;-71
2024/01/30 03:32:23;;;;;;;62.72;59.33;;;;;;;8.78;69.88;102424.47;5071229;28;20033;-70
2024/01/30 03:34:49;;;;;;;65.10;61.80;;;;;;;8.78;70.15;102426.31;5061272;28;20029;-72
2024/01/30 03:37:14;;;;;;;62.25;58.97;;;;;;;8.78;69.78;102416.38;5084495;28;20032;-71
2024/01/30 03:39:39;;;;;;;62.78;59.35;;;;;;;8.80;69.77;102422.41;5070611;28;20028;-71
2024/01/30 03:42:05;;;;;;;65.85;62.38;;;;;;;8.79;69.77;102422.59;5054543;28;20564;-71
2024/01/30 03:44:30;;;;;;;63.38;60.10;;;;;;;8.80;69.76;102424.28;5065522;28;20281;-71
2024/01/30 03:46:55;;;;;;;63.47;60.30;;;;;;;8.79;69.88;102426.13;5063379;28;20120;-71
2024/01/30 03:49:21;;;;;;;60.95;57.75;;;;;;;8.80;69.71;102418.88;5072004;28;20028;-70
2024/01/30 03:51:47;;;;;;;62.10;58.65;;;;;;;8.80;69.87;102417.03;5071949;28;20422;-71
2024/01/30 03:54:13;;;;;;;63.92;60.45;;;;;;;8.80;69.87;102417.03;5072324;28;20081;-73
2024/01/30 03:56:38;;;;;;;64.53;61.33;;;;;;;8.83;70.01;102415.81;5068624;28;20043;-71
2024/01/30 03:59:04;;;;;;;66.38;62.78;;;;;;;8.82;69.86;102409.59;5068286;28;20433;-71
2024/01/30 04:01:29;;;;;;;59.97;56.63;;;;;;;8.82;69.88;102414.13;5071933;28;20032;-72
2024/01/30 04:03:54;;;;;;;52.97;50.03;;;;;;;8.83;69.86;102415.81;5072509;28;20025;-71
2024/01/30 04:06:20;;;;;;;63.22;59.75;;;;;;;8.84;69.72;102417.47;5071507;28;20522;-71
2024/01/30 04:08:45;;;;;;;60.65;57.60;;;;;;;8.86;69.88;102410.03;5070699;28;20086;-71
2024/01/30 04:11:11;;;;;;;62.92;59.60;;;;;;;8.85;69.83;102401.13;5071429;28;20465;-71
2024/01/30 04:13:36;;;;;;;66.82;63.50;;;;;;;8.86;69.99;102400.09;5072020;28;20146;-71
2024/01/30 04:16:02;;;;;;;66.13;62.50;;;;;;;8.87;69.90;102398.25;5072847;28;20404;-71
2024/01/30 04:18:28;;;;;;;64.47;61.17;;;;;;;8.86;69.90;102400.09;5071758;28;20140;-71
2024/01/30 04:20:54;;;;;;;65.13;61.45;;;;;;;8.86;69.82;102393.88;5065115;28;20469;-72
2024/01/30 04:23:19;;;;;;;62.67;58.75;;;;;;;8.85;69.96;102393.03;5068963;28;20484;-71
2024/01/30 04:25:45;;;;;;;62.78;59.35;;;;;;;8.87;70.01;102396.38;5072829;28;20103;-72
2024/01/30 04:28:13;;;;;;;61.30;57.78;;;;;;;8.86;70.01;102394.69;5072567;28;20039;-71
2024/01/30 04:30:39;;;;;;;63.65;60.00;;;;;;;8.86;69.97;102400.09;5067523;28;20025;-70
2024/01/30 04:33:04;;;;;;;57.72;54.88;;;;;;;8.87;70.01;102404.47;5071980;28;20085;-70
2024/01/30 04:35:30;;;;;;;62.47;59.05;;;;;;;8.87;69.98;102401.78;5072037;28;20036;-71
2024/01/30 04:37:55;;;;;;;61.17;57.90;;;;;;;8.88;70.06;102399.91;5068797;28;20433;-70
2024/01/30 04:40:21;;;;;;;67.10;63.25;;;;;;;8.90;70.13;102403.25;5051885;28;20032;-71
2024/01/30 04:42:46;;;;;;;61.58;58.22;;;;;;;8.91;70.11;102396.00;5071104;28;20024;-71
2024/01/30 04:45:12;;;;;;;61.50;58.22;;;;;;;8.92;70.09;102392.25;5072395;28;20036;-71
2024/01/30 04:47:38;;;;;;;64.75;61.22;;;;;;;8.94;70.15;102398.28;5067753;28;20420;-71
2024/01/30 04:50:06;;;;;;;61.90;58.70;;;;;;;8.94;69.76;102399.13;5066949;28;20038;-71
2024/01/30 04:52:31;;;;;;;62.85;59.30;;;;;;;8.96;70.09;102398.94;5071146;28;20037;-71
2024/01/30 04:54:57;;;;;;;61.92;58.70;;;;;;;8.95;70.16;102392.72;5071758;28;20025;-70
2024/01/30 04:57:22;;;;;;;62.47;59.00;;;;;;;8.94;70.22;102391.03;5065698;28;20119;-71
2024/01/30 04:59:48;;;;;;;64.03;60.65;;;;;;;8.95;70.32;102386.50;5065295;28;20086;-71
2024/01/30 05:02:13;;;;;;;64.57;61.22;;;;;;;8.95;70.25;102387.34;5070098;28;20044;-71
2024/01/30 05:04:40;;;;;;;60.50;57.60;;;;;;;8.95;70.12;102392.72;5071850;28;20464;-71
2024/01/30 05:07:06;;;;;;;66.90;63.10;;;;;;;8.95;70.20;102387.34;5063905;28;20021;-71
2024/01/30 05:09:31;;;;;;;65.43;62.03;;;;;;;8.96;70.12;102393.56;5056846;28;20039;-71
2024/01/30 05:11:58;;;;;;;62.00;58.70;;;;;;;8.95;70.15;102390.03;5067393;28;20365;-70
2024/01/30 05:14:23;;;;;;;61.90;58.78;;;;;;;8.95;70.04;102387.34;5071691;28;20099;-70
2024/01/30 05:16:49;;;;;;;62.28;59.15;;;;;;;8.95;69.92;102387.34;5055939;28;20468;-70
2024/01/30 05:19:14;;;;;;;62.25;58.95;;;;;;;8.96;70.05;102385.47;5068813;28;20049;-70
2024/01/30 05:21:41;;;;;;;63.45;60.15;;;;;;;8.96;70.00;102390.84;5069140;28;20308;-71
2024/01/30 05:24:09;;;;;;;64.32;60.63;;;;;;;8.95;70.07;102392.72;5071801;28;20449;-70
2024/01/30 05:26:35;;;;;;;64.37;60.97;;;;;;;8.95;70.06;102381.94;5068893;28;20036;-72
2024/01/30 05:29:00;;;;;;;66.65;62.85;;;;;;;8.96;70.15;102377.38;5069842;28;20025;-70
2024/01/30 05:31:27;;;;;;;63.50;60.38;;;;;;;8.96;69.87;102380.09;5070975;28;20116;-71
2024/01/30 05:33:52;;;;;;;61.60;58.30;;;;;;;8.96;69.97;102382.78;5072011;28;20025;-72
2024/01/30 05:36:17;;;;;;;65.30;61.90;;;;;;;8.95;70.05;102376.56;5069079;28;20033;-71
2024/01/30 05:38:43;;;;;;;62.35;59.17;;;;;;;8.96;69.90;102383.59;5068752;28;20049;-71
2024/01/30 05:41:09;;;;;;;64.22;60.70;;;;;;;8.97;70.07;102385.28;5066474;28;20044;-71
2024/01/30 05:43:34;;;;;;;63.38;59.30;;;;;;;8.97;69.99;102389.81;5067679;28;20392;-70
2024/01/30 05:46:00;;;;;;;63.78;60.30;;;;;;;8.97;69.80;102382.59;5052050;28;20029;-70
2024/01/30 05:48:26;;;;;;;67.72;64.10;;;;;;;8.96;69.92;102378.22;5051360;28;20040;-72
2024/01/30 05:50:51;;;;;;;68.15;64.65;;;;;;;8.97;69.94;102385.28;5055651;28;20032;-72
2024/01/30 05:53:17;;;;;;;64.50;60.95;;;;;;;8.97;70.11;102382.59;5071716;28;20072;-70
2024/01/30 05:55:42;;;;;;;67.13;63.83;;;;;;;8.96;69.88;102388.16;5053242;28;20074;-70
2024/01/30 05:58:07;;;;;;;66.53;62.92;;;;;;;8.96;69.98;102394.38;5056980;28;20067;-71
2024/01/30 06:00:33;;;;;;;69.78;65.97;;;;;;;8.98;69.92;102396.91;5059466;28;20088;-71
2024/01/30 06:02:58;;;;;;;61.80;58.65;;;;;;;8.98;69.97;102394.19;5052374;28;20408;-72
2024/01/30 06:05:23;;;;;;;64.70;61.40;;;;;;;8.98;69.93;102395.03;5067254;28;20056;-69
2024/01/30 06:07:49;;;;;;;61.35;58.25;;;;;;;8.99;70.00;102394.00;5069743;28;20373;-70
2024/01/30 06:10:14;;;;;;;66.70;63.20;;;;;;;9.01;70.11;102400.03;5070974;28;20025;-70
2024/01/30 06:12:40;;;;;;;63.45;60.03;;;;;;;9.02;69.99;102395.47;5067540;28;20119;-70
2024/01/30 06:15:06;;;;;;;66.45;62.70;;;;;;;9.02;70.00;102395.47;5070896;28;20131;-71
2024/01/30 06:17:32;;;;;;;64.80;61.30;;;;;;;9.04;70.04;102399.66;5066527;28;20110;-71
2024/01/30 06:19:58;;;;;;;66.28;62.85;;;;;;;9.05;70.11;102397.81;5059352;28;20548;-70
2024/01/30 06:22:23;;;;;;;64.68;60.85;;;;;;;9.05;70.18;102403.19;5068110;28;20044;-70
2024/01/30 06:24:48;;;;;;;65.88;62.45;;;;;;;9.06;70.07;102415.63;5060147;28;20048;-70
2024/01/30 06:27:15;;;;;;;65.30;61.83;;;;;;;9.07;70.12;102401.13;5064180;28;20051;-73
2024/01/30 06:29:42;;;;;;;66.05;62.60;;;;;;;9.07;70.03;102401.97;5050872;28;20036;-71
2024/01/30 06:32:08;;;;;;;62.83;59.35;;;;;;;9.09;70.19;102407.16;5052695;28;20048;-71
2024/01/30 06:34:33;;;;;;;64.03;60.67;;;;;;;9.10;70.22;102412.38;5069830;28;20428;-70
2024/01/30 06:36:58;;;;;;;63.17;59.47;;;;;;;9.10;70.28;102406.16;5072041;28;20382;-71
2024/01/30 06:39:25;;;;;;;65.72;62.30;;;;;;;9.11;70.37;102415.91;5061767;28;20056;-71
2024/01/30 06:41:50;;;;;;;61.72;58.63;;;;;;;9.11;70.14;102418.59;5070604;28;20039;-71
2024/01/30 06:44:15;;;;;;;66.75;63.15;;;;;;;9.12;70.16;102425.63;5057019;28;20044;-71
2024/01/30 06:46:41;;;;;;;67.75;64.25;;;;;;;9.12;69.88;102425.63;5058398;28;20029;-71
2024/01/30 06:49:06;;;;;;;60.85;57.92;;;;;;;9.13;70.19;102426.50;5071938;28;20116;-72
2024/01/30 06:51:31;;;;;;;65.47;61.95;;;;;;;9.12;70.09;102441.81;5068631;28;20115;-71
2024/01/30 06:53:57;;;;;;;63.75;60.60;;;;;;;9.14;70.13;102447.84;5064194;28;20121;-71
2024/01/30 06:56:22;;;;;;;64.30;60.47;;;;;;;9.14;70.14;102444.34;5066788;28;20048;-70
2024/01/30 06:58:48;;;;;;;67.50;63.83;;;;;;;9.16;70.18;102447.69;5064091;28;20119;-70
2024/01/30 07:01:14;;;;;;;66.95;63.30;;;;;;;9.16;70.07;102444.97;5073562;28;20024;-72
2024/01/30 07:03:40;;;;;;;65.30;62.00;;;;;;;9.18;70.20;102453.72;5069940;28;20060;-74
2024/01/30 07:06:05;;;;;;;64.43;61.28;;;;;;;9.20;69.92;102449.81;5074207;28;20048;-70
2024/01/30 07:08:31;;;;;;;65.88;62.58;;;;;;;9.21;70.17;102450.63;5072717;28;20041;-74
2024/01/30 07:10:56;;;;;;;65.00;61.42;;;;;;;9.23;70.00;102452.13;5059665;28;20055;-70
2024/01/30 07:13:22;;;;;;;68.60;65.10;;;;;;;9.25;70.29;102460.03;5056136;28;20477;-70
2024/01/30 07:15:47;;;;;;;69.03;64.45;;;;;;;9.26;70.26;102454.41;5071505;28;20043;-70
2024/01/30 07:18:13;;;;;;;68.80;65.05;;;;;;;9.27;70.24;102466.88;5069132;28;20043;-69
2024/01/30 07:20:46;;;;;;;69.80;66.03;;;;;;;9.28;70.54;102468.56;5073385;28;20052;-69
2024/01/30 07:23:13;;;;;;;69.82;65.90;;;;;;;9.29;70.42;102464.81;5073257;28;20126;-68
2024/01/30 07:25:41;;;;;;;69.47;65.18;;;;;;;9.30;70.62;102474.59;5060118;28;20052;-70
2024/01/30 07:28:09;;;;;;;67.50;64.05;;;;;;;9.31;70.85;102475.41;5067152;28;20109;-72
2024/01/30 07:30:34;;;;;;;66.10;62.67;;;;;;;9.32;70.55;102474.38;5072049;28;20035;-69
2024/01/30 07:33:00;;;;;;;64.93;61.70;;;;;;;9.32;70.74;102475.25;5073688;28;20040;-69
2024/01/30 07:35:25;;;;;;;66.93;62.97;;;;;;;9.33;70.77;102481.47;5068339;28;20488;-69
2024/01/30 07:37:50;;;;;;;69.15;65.03;;;;;;;9.35;70.93;102478.56;5065001;28;20037;-70
2024/01/30 07:40:17;;;;;;;68.38;64.78;;;;;;;9.36;70.80;102485.63;5073025;28;20032;-69
2024/01/30 07:42:42;;;;;;;69.75;65.95;;;;;;;9.36;70.87;102482.94;5073024;28;20541;-69
2024/01/30 07:45:08;;;;;;;67.60;64.20;;;;;;;9.37;70.86;102490.00;5068289;28;20029;-71
2024/01/30 07:47:33;;;;;;;66.28;62.78;;;;;;;9.37;70.86;102487.28;5067908;28;20490;-70
2024/01/30 07:49:59;;;;;;;68.03;64.43;;;;;;;9.37;70.90;102488.13;5072046;28;20044;-70
2024/01/30 07:52:24;;;;;;;69.88;66.13;;;;;;;9.37;70.81;102488.13;5073461;28;20040;-70
2024/01/30 07:54:50;;;;;;;69.55;66.13;;;;;;;9.38;70.76;102492.50;5071164;28;20438;-69
2024/01/30 07:57:16;;;;;;;69.60;66.03;;;;;;;9.38;70.48;102488.97;5061970;28;20029;-70
2024/01/30 07:59:45;;;;;;;71.22;67.63;;;;;;;9.37;70.81;102495.38;5060584;28;20024;-70
2024/01/30 08:02:14;;;;;;;66.25;62.67;;;;;;;9.36;70.66;102502.66;5065577;28;20480;-70
2024/01/30 08:04:40;;;;;;;67.43;64.10;;;;;;;9.35;70.70;102503.69;5069982;28;20055;-70
2024/01/30 08:07:05;;;;;;;65.53;62.30;;;;;;;9.35;70.48;102494.72;5071908;28;20028;-70
2024/01/30 08:09:31;;;;;;;64.55;61.15;;;;;;;9.35;70.46;102510.91;5072389;28;20048;-71
2024/01/30 08:11:56;;;;;;;64.68;61.17;;;;;;;9.35;70.59;102505.53;5060395;28;20036;-70
2024/01/30 08:14:22;;;;;;;66.07;62.90;;;;;;;9.34;70.45;102502.00;5071490;28;20040;-71
2024/01/30 08:16:47;;;;;;;65.38;61.30;;;;;;;9.31;70.35;102495.13;5072312;28;20465;-69
2024/01/30 08:19:14;;;;;;;68.63;65.25;;;;;;;9.33;70.36;102505.72;5070278;28;20056;-69
2024/01/30 08:21:39;;;;;;;67.60;64.40;;;;;;;9.34;70.51;102506.56;5069963;28;20078;-70
2024/01/30 08:24:05;;;;;;;66.95;63.60;;;;;;;9.33;70.12;102500.34;5072296;28;20546;-70
2024/01/30 08:26:32;;;;;;;69.75;66.05;;;;;;;9.34;70.36;102496.59;5072503;28;20042;-70
2024/01/30 08:28:58;;;;;;;65.45;62.08;;;;;;;9.35;70.35;102492.03;5069795;28;20439;-70
2024/01/30 08:31:23;;;;;;;69.13;65.65;;;;;;;9.35;70.24;102502.81;5069090;28;20384;-71
2024/01/30 08:33:48;;;;;;;69.32;65.55;;;;;;;9.35;70.26;102489.34;5051129;28;20051;-70
2024/01/30 08:36:15;;;;;;;66.72;63.42;;;;;;;9.34;70.44;102483.13;5059283;28;20159;-69
2024/01/30 08:38:40;;;;;;;67.15;63.78;;;;;;;9.34;70.23;102491.22;5064367;28;20116;-71
2024/01/30 08:41:07;;;;;;;67.50;64.22;;;;;;;9.35;70.18;102495.59;5054387;28;20135;-71
2024/01/30 08:43:32;;;;;;;65.45;61.97;;;;;;;9.35;70.20;102497.44;5068317;28;20468;-70
2024/01/30 08:46:01;;;;;;;68.60;64.70;;;;;;;9.38;70.22;102494.38;5070670;28;20028;-70
2024/01/30 08:48:26;;;;;;;68.38;64.63;;;;;;;9.39;70.21;102496.03;5070481;28;20032;-70
2024/01/30 08:50:52;;;;;;;68.93;65.25;;;;;;;9.42;70.42;102511.81;5059812;28;20033;-70
2024/01/30 08:53:18;;;;;;;70.35;66.30;;;;;;;9.44;70.22;102510.59;5071243;28;20044;-69
2024/01/30 08:55:43;;;;;;;67.45;63.95;;;;;;;9.44;70.30;102504.38;5069418;28;20047;-71
2024/01/30 08:58:09;;;;;;;68.85;65.55;;;;;;;9.45;70.20;102511.44;5070446;28;20036;-70
2024/01/30 09:00:34;;;;;;;68.10;64.72;;;;;;;9.46;70.17;102508.56;5058989;28;20443;-71
2024/01/30 09:03:00;;;;;;;64.40;61.40;;;;;;;9.46;70.43;102513.97;5066533;28;20051;-70
2024/01/30 09:05:25;;;;;;;68.72;65.45;;;;;;;9.46;70.22;102515.81;5070193;28;20032;-71
2024/01/30 09:07:50;;;;;;;68.57;64.75;;;;;;;9.47;70.35;102518.31;5070041;28;20055;-71
2024/01/30 09:10:16;;;;;;;66.80;63.55;;;;;;;9.49;70.33;102528.91;5061701;28;20079;-71
2024/01/30 09:12:41;;;;;;;69.85;65.70;;;;;;;9.49;70.15;102524.34;5061029;28;20043;-71
2024/01/30 09:15:07;;;;;;;65.72;62.67;;;;;;;9.50;70.34;102528.75;5068613;28;20037;-71
2024/01/30 09:17:33;;;;;;;67.85;64.50;;;;;;;9.51;70.22;102530.41;5050996;28;20397;-71
2024/01/30 09:19:58;;;;;;;67.07;63.70;;;;;;;9.53;70.20;102531.06;5068601;28;20151;-70
2024/01/30 09:22:24;;;;;;;68.43;64.70;;;;;;;9.54;70.29;102534.56;5067911;28;20062;-72
2024/01/30 09:24:49;;;;;;;72.32;68.53;;;;;;;9.55;70.05;102538.97;5069816;28;20040;-70
2024/01/30 09:27:15;;;;;;;65.18;62.03;;;;;;;9.56;70.22;102540.63;5070329;28;20064;-71
2024/01/30 09:29:40;;;;;;;72.13;68.18;;;;;;;9.59;70.23;102539.41;5068852;28;20112;-71
2024/01/30 09:32:06;;;;;;;73.22;68.03;;;;;;;9.60;70.06;102544.63;5069958;28;20039;-71
2024/01/30 09:34:32;;;;;;;74.15;70.05;;;;;;;9.64;70.27;102550.47;5059587;28;20035;-70
2024/01/30 09:36:59;;;;;;;69.80;66.18;;;;;;;9.66;70.30;102543.84;5061094;28;20032;-70
2024/01/30 09:39:24;;;;;;;70.93;67.20;;;;;;;9.69;70.17;102535.34;5069863;28;20060;-71
2024/01/30 09:42:02;;;;;;;75.53;71.20;;;;;;;9.71;70.02;102537.88;5069545;28;20068;-71
2024/01/30 09:44:30;;;;;;;71.82;67.38;;;;;;;9.70;70.26;102531.63;5062758;28;20163;-70
2024/01/30 09:46:58;;;;;;;71.90;68.25;;;;;;;9.71;70.11;102543.25;5069563;28;20085;-71
2024/01/30 09:49:24;;;;;;;74.63;70.77;;;;;;;9.73;70.36;102541.22;5067637;28;20183;-71
2024/01/30 09:51:50;;;;;;;74.78;70.80;;;;;;;9.72;70.28;102543.06;5057255;28;20040;-70
2024/01/30 09:54:16;;;;;;;69.78;66.18;;;;;;;9.74;70.29;102545.56;5071825;28;20029;-71
2024/01/30 09:56:42;;;;;;;69.68;66.25;;;;;;;9.76;70.24;102546.22;5073523;28;20068;-71
2024/01/30 09:59:07;;;;;;;71.25;67.20;;;;;;;9.76;70.41;102543.53;5073665;28;20063;-71
2024/01/30 10:01:36;;;;;;;72.72;68.75;;;;;;;9.72;70.17;102543.06;5068841;28;20041;-71
2024/01/30 10:04:01;;;;;;;69.25;65.95;;;;;;;9.69;70.25;102548.84;5070430;28;20199;-72
2024/01/30 10:06:27;;;;;;;69.88;66.57;;;;;;;9.67;70.42;102553.59;5060122;28;20108;-70
2024/01/30 10:08:53;;;;;;;72.57;68.97;;;;;;;9.67;70.33;102553.59;5054900;28;20039;-70
2024/01/30 10:11:18;;;;;;;72.07;68.55;;;;;;;9.70;70.59;102552.38;5072952;28;20037;-70
2024/01/30 10:13:43;;;;;;;72.35;68.60;;;;;;;9.71;70.65;102546.78;5073390;28;20063;-70
2024/01/30 10:16:09;;;;;;;71.95;67.90;;;;;;;9.78;70.50;102551.41;5073440;28;20108;-70
2024/01/30 10:18:34;;;;;;;69.65;66.00;;;;;;;9.82;70.34;102563.50;5067581;28;20059;-70
2024/01/30 10:21:00;;;;;;;75.95;71.57;;;;;;;9.84;70.27;102569.53;5073632;28;20080;-70
2024/01/30 10:23:26;;;;;;;73.32;69.20;;;;;;;9.86;70.41;102573.72;5073318;28;20075;-70
2024/01/30 10:25:52;;;;;;;68.65;65.30;;;;;;;9.88;70.29;102570.84;5073316;28;20031;-71
2024/01/30 10:28:17;;;;;;;72.03;68.60;;;;;;;9.87;70.19;102567.28;5064157;28;20090;-69
2024/01/30 10:30:43;;;;;;;68.97;65.55;;;;;;;9.87;70.46;102566.44;5068513;28;20036;-70
2024/01/30 10:33:08;;;;;;;73.50;69.90;;;;;;;9.87;70.25;102566.44;5072799;28;20652;-70
2024/01/30 10:35:34;;;;;;;75.70;71.93;;;;;;;9.87;70.39;102579.94;5069418;28;20067;-70
2024/01/30 10:37:59;;;;;;;75.65;71.05;;;;;;;9.85;70.65;102574.75;5069086;28;20052;-70
2024/01/30 10:40:28;;;;;;;72.93;69.32;;;;;;;9.87;70.52;102580.78;5052863;28;20392;-71
2024/01/30 10:42:55;;;;;;;78.80;74.97;;;;;;;9.90;70.52;102569.63;5072697;28;20089;-70
2024/01/30 10:45:22;;;;;;;77.75;73.95;;;;;;;9.91;70.56;102578.53;5071707;28;20507;-69
2024/01/30 10:47:54;;;;;;;73.05;69.43;;;;;;;9.90;70.80;102580.41;5035711;28;20029;-70
2024/01/30 10:50:20;;;;;;;72.57;69.15;;;;;;;9.91;70.76;102575.84;5072038;28;20468;-69
2024/01/30 10:52:49;;;;;;;77.95;74.38;;;;;;;9.91;70.76;102571.28;5072894;28;20430;-70
2024/01/30 10:55:15;;;;;;;70.55;67.25;;;;;;;9.94;70.81;102570.88;5072488;28;20032;-69
2024/01/30 10:57:41;;;;;;;73.95;70.45;;;;;;;9.97;70.67;102564.25;5058173;28;20521;-70
2024/01/30 11:00:12;;;;;;;75.30;71.57;;;;;;;9.99;70.63;102570.31;5065557;28;20064;-72
2024/01/30 11:02:43;;;;;;;76.43;72.55;;;;;;;10.00;70.43;102573.84;5055064;28;20045;-70
2024/01/30 11:05:09;;;;;;;75.13;71.47;;;;;;;10.02;70.67;102582.59;5061096;28;20037;-70
2024/01/30 11:07:35;;;;;;;73.70;69.88;;;;;;;10.05;70.75;102579.47;5068307;28;20132;-70
2024/01/30 11:10:03;;;;;;;73.05;69.55;;;;;;;10.06;70.09;102573.06;5069453;28;20392;-71